sensor_id;sensor_type;location;lat;lon;timestamp;P1;durP1;ratioP1;P2;durP2;ratioP2
10299;SDS011;5195;48.562;9.192;2024-03-06T00:00:03;4.50;;;4.10;;
10299;SDS011;5195;48.562;9.192;2024-03-06T00:02:38;3.40;;;3.10;;
10299;SDS011;5195;48.562;9.192;2024-03-06T00:05:16;2.87;;;2.67;;
10299;SDS011;5195;48.562;9.192;2024-03-06T00:07:52;3.40;;;3.20;;
10299;SDS011;5195;48.562;9.192;2024-03-06T00:10:30;4.07;;;3.77;;
10299;SDS011;5195;48.562;9.192;2024-03-06T00:13:05;3.60;;;3.30;;
10299;SDS011;5195;48.562;9.192;2024-03-06T00:15:41;3.47;;;3.20;;
10299;SDS011;5195;48.562;9.192;2024-03-06T00:18:16;3.60;;;3.40;;
10299;SDS011;5195;48.562;9.192;2024-03-06T00:20:52;3.50;;;3.30;;
10299;SDS011;5195;48.562;9.192;2024-03-06T00:23:28;3.67;;;3.40;;
10299;SDS011;5195;48.562;9.192;2024-03-06T00:26:03;3.00;;;2.90;;
10299;SDS011;5195;48.562;9.192;2024-03-06T00:28:39;3.03;;;2.93;;
10299;SDS011;5195;48.562;9.192;2024-03-06T00:31:15;3.77;;;3.03;;
10299;SDS011;5195;48.562;9.192;2024-03-06T00:33:51;3.50;;;3.23;;
10299;SDS011;5195;48.562;9.192;2024-03-06T00:36:27;3.67;;;3.30;;
10299;SDS011;5195;48.562;9.192;2024-03-06T00:39:03;3.10;;;2.90;;
10299;SDS011;5195;48.562;9.192;2024-03-06T00:41:38;3.60;;;3.40;;
10299;SDS011;5195;48.562;9.192;2024-03-06T00:44:14;3.50;;;3.20;;
10299;SDS011;5195;48.562;9.192;2024-03-06T00:46:49;3.00;;;2.80;;
10299;SDS011;5195;48.562;9.192;2024-03-06T00:49:25;3.23;;;3.03;;
10299;SDS011;5195;48.562;9.192;2024-03-06T00:52:01;3.40;;;3.20;;
10299;SDS011;5195;48.562;9.192;2024-03-06T00:54:37;3.25;;;3.05;;
10299;SDS011;5195;48.562;9.192;2024-03-06T00:57:12;3.07;;;2.90;;
10299;SDS011;5195;48.562;9.192;2024-03-06T00:59:49;3.40;;;3.20;;
10299;SDS011;5195;48.562;9.192;2024-03-06T01:02:27;3.03;;;2.83;;
10299;SDS011;5195;48.562;9.192;2024-03-06T01:05:04;3.90;;;3.70;;
10299;SDS011;5195;48.562;9.192;2024-03-06T01:07:39;3.97;;;3.50;;
10299;SDS011;5195;48.562;9.192;2024-03-06T01:10:15;3.97;;;3.77;;
10299;SDS011;5195;48.562;9.192;2024-03-06T01:12:51;4.97;;;4.50;;
10299;SDS011;5195;48.562;9.192;2024-03-06T01:15:27;4.78;;;4.47;;
10299;SDS011;5195;48.562;9.192;2024-03-06T01:18:03;5.17;;;4.77;;
10299;SDS011;5195;48.562;9.192;2024-03-06T01:20:39;4.43;;;4.20;;
10299;SDS011;5195;48.562;9.192;2024-03-06T01:23:15;4.50;;;4.20;;
10299;SDS011;5195;48.562;9.192;2024-03-06T01:25:50;4.40;;;4.10;;
10299;SDS011;5195;48.562;9.192;2024-03-06T01:28:26;4.50;;;4.20;;
10299;SDS011;5195;48.562;9.192;2024-03-06T01:31:03;4.03;;;3.73;;
10299;SDS011;5195;48.562;9.192;2024-03-06T01:33:39;3.80;;;3.50;;
10299;SDS011;5195;48.562;9.192;2024-03-06T01:36:15;4.63;;;4.27;;
10299;SDS011;5195;48.562;9.192;2024-03-06T01:38:51;4.37;;;4.07;;
10299;SDS011;5195;48.562;9.192;2024-03-06T01:41:26;5.23;;;4.87;;
10299;SDS011;5195;48.562;9.192;2024-03-06T01:44:02;6.05;;;5.65;;
10299;SDS011;5195;48.562;9.192;2024-03-06T01:46:38;6.07;;;5.68;;
10299;SDS011;5195;48.562;9.192;2024-03-06T01:49:14;5.90;;;5.50;;
10299;SDS011;5195;48.562;9.192;2024-03-06T01:51:50;6.50;;;6.07;;
10299;SDS011;5195;48.562;9.192;2024-03-06T01:54:26;6.20;;;5.70;;
10299;SDS011;5195;48.562;9.192;2024-03-06T01:57:01;5.77;;;5.37;;
10299;SDS011;5195;48.562;9.192;2024-03-06T01:59:37;5.57;;;4.70;;
10299;SDS011;5195;48.562;9.192;2024-03-06T02:02:14;6.53;;;6.13;;
10299;SDS011;5195;48.562;9.192;2024-03-06T02:04:52;6.70;;;6.20;;
10299;SDS011;5195;48.562;9.192;2024-03-06T02:07:26;6.78;;;6.30;;
10299;SDS011;5195;48.562;9.192;2024-03-06T02:10:01;6.03;;;5.63;;
10299;SDS011;5195;48.562;9.192;2024-03-06T02:12:39;5.97;;;5.47;;
10299;SDS011;5195;48.562;9.192;2024-03-06T02:15:16;6.85;;;6.25;;
10299;SDS011;5195;48.562;9.192;2024-03-06T02:17:51;6.30;;;5.73;;
10299;SDS011;5195;48.562;9.192;2024-03-06T02:20:27;6.55;;;6.07;;
10299;SDS011;5195;48.562;9.192;2024-03-06T02:23:04;6.10;;;5.60;;
10299;SDS011;5195;48.562;9.192;2024-03-06T02:25:40;5.97;;;5.67;;
10299;SDS011;5195;48.562;9.192;2024-03-06T02:28:16;6.10;;;5.80;;
10299;SDS011;5195;48.562;9.192;2024-03-06T02:30:51;6.50;;;5.90;;
10299;SDS011;5195;48.562;9.192;2024-03-06T02:33:27;4.90;;;4.60;;
10299;SDS011;5195;48.562;9.192;2024-03-06T02:36:03;5.40;;;5.00;;
10299;SDS011;5195;48.562;9.192;2024-03-06T02:38:39;4.73;;;4.43;;
10299;SDS011;5195;48.562;9.192;2024-03-06T02:41:14;4.70;;;4.30;;
10299;SDS011;5195;48.562;9.192;2024-03-06T02:43:51;4.17;;;3.97;;
10299;SDS011;5195;48.562;9.192;2024-03-06T02:46:26;4.87;;;4.43;;
10299;SDS011;5195;48.562;9.192;2024-03-06T02:49:02;4.43;;;4.10;;
10299;SDS011;5195;48.562;9.192;2024-03-06T02:51:38;5.90;;;4.90;;
10299;SDS011;5195;48.562;9.192;2024-03-06T02:54:13;4.57;;;4.33;;
10299;SDS011;5195;48.562;9.192;2024-03-06T02:56:50;5.28;;;4.97;;
10299;SDS011;5195;48.562;9.192;2024-03-06T02:59:24;5.45;;;5.05;;
10299;SDS011;5195;48.562;9.192;2024-03-06T03:02:00;5.37;;;4.90;;
10299;SDS011;5195;48.562;9.192;2024-03-06T03:04:35;5.60;;;5.20;;
10299;SDS011;5195;48.562;9.192;2024-03-06T03:07:11;5.00;;;4.70;;
10299;SDS011;5195;48.562;9.192;2024-03-06T03:09:48;5.53;;;5.12;;
10299;SDS011;5195;48.562;9.192;2024-03-06T03:12:24;5.13;;;4.73;;
10299;SDS011;5195;48.562;9.192;2024-03-06T03:14:59;4.87;;;4.47;;
10299;SDS011;5195;48.562;9.192;2024-03-06T03:17:35;4.63;;;4.33;;
10299;SDS011;5195;48.562;9.192;2024-03-06T03:20:11;4.80;;;4.50;;
10299;SDS011;5195;48.562;9.192;2024-03-06T03:22:46;5.35;;;4.95;;
10299;SDS011;5195;48.562;9.192;2024-03-06T03:25:22;4.47;;;4.23;;
10299;SDS011;5195;48.562;9.192;2024-03-06T03:27:57;4.60;;;4.30;;
10299;SDS011;5195;48.562;9.192;2024-03-06T03:30:34;5.80;;;5.40;;
10299;SDS011;5195;48.562;9.192;2024-03-06T03:33:09;5.40;;;5.00;;
10299;SDS011;5195;48.562;9.192;2024-03-06T03:35:45;5.87;;;5.37;;
10299;SDS011;5195;48.562;9.192;2024-03-06T03:38:20;5.70;;;5.20;;
10299;SDS011;5195;48.562;9.192;2024-03-06T03:40:56;4.53;;;4.23;;
10299;SDS011;5195;48.562;9.192;2024-03-06T03:43:32;6.28;;;5.75;;
10299;SDS011;5195;48.562;9.192;2024-03-06T03:46:07;5.20;;;4.80;;
10299;SDS011;5195;48.562;9.192;2024-03-06T03:48:43;5.07;;;4.63;;
10299;SDS011;5195;48.562;9.192;2024-03-06T03:51:21;5.67;;;5.07;;
10299;SDS011;5195;48.562;9.192;2024-03-06T03:53:56;5.87;;;5.40;;
10299;SDS011;5195;48.562;9.192;2024-03-06T03:56:32;6.20;;;5.60;;
10299;SDS011;5195;48.562;9.192;2024-03-06T03:59:07;5.57;;;5.07;;
10299;SDS011;5195;48.562;9.192;2024-03-06T04:01:44;5.47;;;4.97;;
10299;SDS011;5195;48.562;9.192;2024-03-06T04:04:19;5.43;;;5.13;;
10299;SDS011;5195;48.562;9.192;2024-03-06T04:06:55;4.80;;;4.50;;
10299;SDS011;5195;48.562;9.192;2024-03-06T04:09:33;6.07;;;5.70;;
10299;SDS011;5195;48.562;9.192;2024-03-06T04:12:09;6.50;;;4.97;;
10299;SDS011;5195;48.562;9.192;2024-03-06T04:14:45;5.60;;;5.20;;
10299;SDS011;5195;48.562;9.192;2024-03-06T04:17:21;5.47;;;5.10;;
10299;SDS011;5195;48.562;9.192;2024-03-06T04:19:57;5.90;;;5.40;;
10299;SDS011;5195;48.562;9.192;2024-03-06T04:22:33;4.87;;;4.57;;
10299;SDS011;5195;48.562;9.192;2024-03-06T04:25:09;6.35;;;5.75;;
10299;SDS011;5195;48.562;9.192;2024-03-06T04:27:45;6.30;;;5.90;;
10299;SDS011;5195;48.562;9.192;2024-03-06T04:30:20;6.30;;;5.30;;
10299;SDS011;5195;48.562;9.192;2024-03-06T04:32:56;6.18;;;5.68;;
10299;SDS011;5195;48.562;9.192;2024-03-06T04:35:33;6.20;;;5.80;;
10299;SDS011;5195;48.562;9.192;2024-03-06T04:38:09;6.33;;;5.90;;
10299;SDS011;5195;48.562;9.192;2024-03-06T04:40:44;5.77;;;5.20;;
10299;SDS011;5195;48.562;9.192;2024-03-06T04:43:20;5.30;;;4.80;;
10299;SDS011;5195;48.562;9.192;2024-03-06T04:45:56;6.13;;;5.73;;
10299;SDS011;5195;48.562;9.192;2024-03-06T04:48:31;5.67;;;5.20;;
10299;SDS011;5195;48.562;9.192;2024-03-06T04:51:08;5.23;;;4.83;;
10299;SDS011;5195;48.562;9.192;2024-03-06T04:53:45;7.83;;;5.27;;
10299;SDS011;5195;48.562;9.192;2024-03-06T04:56:21;6.50;;;6.00;;
10299;SDS011;5195;48.562;9.192;2024-03-06T04:58:57;7.00;;;6.30;;
10299;SDS011;5195;48.562;9.192;2024-03-06T05:01:33;5.37;;;5.07;;
10299;SDS011;5195;48.562;9.192;2024-03-06T05:04:08;5.20;;;4.80;;
10299;SDS011;5195;48.562;9.192;2024-03-06T05:06:45;5.40;;;4.97;;
10299;SDS011;5195;48.562;9.192;2024-03-06T05:09:23;5.20;;;4.80;;
10299;SDS011;5195;48.562;9.192;2024-03-06T05:12:00;5.73;;;5.20;;
10299;SDS011;5195;48.562;9.192;2024-03-06T05:14:36;6.03;;;5.62;;
10299;SDS011;5195;48.562;9.192;2024-03-06T05:17:12;6.93;;;6.23;;
10299;SDS011;5195;48.562;9.192;2024-03-06T05:19:48;7.23;;;6.63;;
10299;SDS011;5195;48.562;9.192;2024-03-06T05:22:23;5.40;;;5.00;;
10299;SDS011;5195;48.562;9.192;2024-03-06T05:25:01;5.17;;;4.83;;
10299;SDS011;5195;48.562;9.192;2024-03-06T05:27:37;6.22;;;5.72;;
10299;SDS011;5195;48.562;9.192;2024-03-06T05:30:12;5.57;;;5.13;;
10299;SDS011;5195;48.562;9.192;2024-03-06T05:32:48;6.60;;;6.00;;
10299;SDS011;5195;48.562;9.192;2024-03-06T05:35:23;5.70;;;5.30;;
10299;SDS011;5195;48.562;9.192;2024-03-06T05:37:59;6.30;;;5.85;;
10299;SDS011;5195;48.562;9.192;2024-03-06T05:40:34;5.33;;;4.97;;
10299;SDS011;5195;48.562;9.192;2024-03-06T05:43:12;6.57;;;5.97;;
10299;SDS011;5195;48.562;9.192;2024-03-06T05:45:47;6.63;;;6.13;;
10299;SDS011;5195;48.562;9.192;2024-03-06T05:48:23;6.68;;;6.22;;
10299;SDS011;5195;48.562;9.192;2024-03-06T05:50:58;6.23;;;5.73;;
10299;SDS011;5195;48.562;9.192;2024-03-06T05:53:37;5.30;;;4.80;;
10299;SDS011;5195;48.562;9.192;2024-03-06T05:56:13;6.33;;;5.83;;
10299;SDS011;5195;48.562;9.192;2024-03-06T05:58:49;5.60;;;5.10;;
10299;SDS011;5195;48.562;9.192;2024-03-06T06:01:25;6.43;;;5.82;;
10299;SDS011;5195;48.562;9.192;2024-03-06T06:04:01;6.43;;;5.93;;
10299;SDS011;5195;48.562;9.192;2024-03-06T06:06:36;7.00;;;6.27;;
10299;SDS011;5195;48.562;9.192;2024-03-06T06:09:12;5.70;;;5.20;;
10299;SDS011;5195;48.562;9.192;2024-03-06T06:11:49;6.40;;;4.83;;
10299;SDS011;5195;48.562;9.192;2024-03-06T06:14:25;5.83;;;5.27;;
10299;SDS011;5195;48.562;9.192;2024-03-06T06:17:01;5.87;;;5.30;;
10299;SDS011;5195;48.562;9.192;2024-03-06T06:19:37;5.60;;;5.10;;
10299;SDS011;5195;48.562;9.192;2024-03-06T06:22:13;7.40;;;6.55;;
10299;SDS011;5195;48.562;9.192;2024-03-06T06:24:49;8.27;;;7.50;;
10299;SDS011;5195;48.562;9.192;2024-03-06T06:27:24;6.63;;;6.03;;
10299;SDS011;5195;48.562;9.192;2024-03-06T06:30:00;8.45;;;7.70;;
10299;SDS011;5195;48.562;9.192;2024-03-06T06:32:37;9.10;;;8.18;;
10299;SDS011;5195;48.562;9.192;2024-03-06T06:35:12;9.45;;;8.48;;
10299;SDS011;5195;48.562;9.192;2024-03-06T06:40:46;9.13;;;8.23;;
10299;SDS011;5195;48.562;9.192;2024-03-06T06:43:22;9.57;;;8.20;;
10299;SDS011;5195;48.562;9.192;2024-03-06T06:45:58;8.15;;;7.30;;
10299;SDS011;5195;48.562;9.192;2024-03-06T06:48:33;6.43;;;5.83;;
10299;SDS011;5195;48.562;9.192;2024-03-06T06:51:09;5.37;;;4.87;;
10299;SDS011;5195;48.562;9.192;2024-03-06T06:53:45;5.40;;;4.97;;
10299;SDS011;5195;48.562;9.192;2024-03-06T06:56:21;6.97;;;6.40;;
10299;SDS011;5195;48.562;9.192;2024-03-06T06:58:57;7.60;;;6.33;;
10299;SDS011;5195;48.562;9.192;2024-03-06T07:01:33;7.87;;;7.10;;
10299;SDS011;5195;48.562;9.192;2024-03-06T07:04:08;6.60;;;5.93;;
10299;SDS011;5195;48.562;9.192;2024-03-06T07:06:45;6.10;;;5.50;;
10299;SDS011;5195;48.562;9.192;2024-03-06T07:09:20;8.87;;;6.27;;
10299;SDS011;5195;48.562;9.192;2024-03-06T07:11:56;21.60;;;14.70;;
10299;SDS011;5195;48.562;9.192;2024-03-06T07:14:31;17.23;;;15.07;;
10299;SDS011;5195;48.562;9.192;2024-03-06T07:17:08;9.37;;;8.47;;
10299;SDS011;5195;48.562;9.192;2024-03-06T07:19:44;7.57;;;6.87;;
10299;SDS011;5195;48.562;9.192;2024-03-06T07:22:20;7.57;;;6.87;;
10299;SDS011;5195;48.562;9.192;2024-03-06T07:24:56;6.60;;;6.10;;
10299;SDS011;5195;48.562;9.192;2024-03-06T07:27:32;8.20;;;7.47;;
10299;SDS011;5195;48.562;9.192;2024-03-06T07:30:08;10.48;;;9.48;;
10299;SDS011;5195;48.562;9.192;2024-03-06T07:32:48;13.43;;;12.30;;
10299;SDS011;5195;48.562;9.192;2024-03-06T07:35:23;12.77;;;11.57;;
10299;SDS011;5195;48.562;9.192;2024-03-06T07:37:59;7.27;;;6.67;;
10299;SDS011;5195;48.562;9.192;2024-03-06T07:40:36;6.17;;;5.57;;
10299;SDS011;5195;48.562;9.192;2024-03-06T07:43:11;6.70;;;6.10;;
10299;SDS011;5195;48.562;9.192;2024-03-06T07:45:47;6.93;;;6.32;;
10299;SDS011;5195;48.562;9.192;2024-03-06T07:48:22;6.93;;;6.40;;
10299;SDS011;5195;48.562;9.192;2024-03-06T07:50:58;5.70;;;5.20;;
10299;SDS011;5195;48.562;9.192;2024-03-06T07:53:33;5.80;;;5.20;;
10299;SDS011;5195;48.562;9.192;2024-03-06T07:56:12;8.88;;;8.02;;
10299;SDS011;5195;48.562;9.192;2024-03-06T07:58:48;5.57;;;5.17;;
10299;SDS011;5195;48.562;9.192;2024-03-06T08:01:25;7.10;;;6.50;;
10299;SDS011;5195;48.562;9.192;2024-03-06T08:04:01;7.13;;;6.53;;
10299;SDS011;5195;48.562;9.192;2024-03-06T08:06:37;6.95;;;6.05;;
10299;SDS011;5195;48.562;9.192;2024-03-06T08:09:14;6.50;;;5.90;;
10299;SDS011;5195;48.562;9.192;2024-03-06T08:11:49;7.00;;;6.40;;
10299;SDS011;5195;48.562;9.192;2024-03-06T08:14:25;6.43;;;5.40;;
10299;SDS011;5195;48.562;9.192;2024-03-06T08:17:01;6.13;;;5.13;;
10299;SDS011;5195;48.562;9.192;2024-03-06T08:19:36;6.53;;;5.00;;
10299;SDS011;5195;48.562;9.192;2024-03-06T08:22:12;7.05;;;6.47;;
10299;SDS011;5195;48.562;9.192;2024-03-06T08:24:47;6.10;;;5.23;;
10299;SDS011;5195;48.562;9.192;2024-03-06T08:27:24;7.50;;;6.80;;
10299;SDS011;5195;48.562;9.192;2024-03-06T08:29:59;7.03;;;5.80;;
10299;SDS011;5195;48.562;9.192;2024-03-06T08:32:36;5.90;;;5.40;;
10299;SDS011;5195;48.562;9.192;2024-03-06T08:35:12;6.10;;;5.60;;
10299;SDS011;5195;48.562;9.192;2024-03-06T08:37:47;6.63;;;6.07;;
10299;SDS011;5195;48.562;9.192;2024-03-06T08:40:22;8.63;;;7.93;;
10299;SDS011;5195;48.562;9.192;2024-03-06T08:42:58;9.13;;;8.27;;
10299;SDS011;5195;48.562;9.192;2024-03-06T08:45:34;9.50;;;8.60;;
10299;SDS011;5195;48.562;9.192;2024-03-06T08:48:10;9.90;;;9.20;;
10299;SDS011;5195;48.562;9.192;2024-03-06T08:50:46;8.20;;;7.40;;
10299;SDS011;5195;48.562;9.192;2024-03-06T08:53:23;8.87;;;8.07;;
10299;SDS011;5195;48.562;9.192;2024-03-06T08:55:59;10.20;;;9.20;;
10299;SDS011;5195;48.562;9.192;2024-03-06T08:58:37;10.30;;;9.48;;
10299;SDS011;5195;48.562;9.192;2024-03-06T09:01:14;11.00;;;9.90;;
10299;SDS011;5195;48.562;9.192;2024-03-06T09:03:49;8.67;;;7.70;;
10299;SDS011;5195;48.562;9.192;2024-03-06T09:06:25;7.33;;;6.80;;
10299;SDS011;5195;48.562;9.192;2024-03-06T09:09:00;9.57;;;8.77;;
10299;SDS011;5195;48.562;9.192;2024-03-06T09:11:37;10.07;;;9.27;;
10299;SDS011;5195;48.562;9.192;2024-03-06T09:14:12;9.20;;;8.27;;
10299;SDS011;5195;48.562;9.192;2024-03-06T09:16:48;10.40;;;9.45;;
10299;SDS011;5195;48.562;9.192;2024-03-06T09:19:24;9.75;;;8.95;;
10299;SDS011;5195;48.562;9.192;2024-03-06T09:22:01;7.77;;;7.17;;
10299;SDS011;5195;48.562;9.192;2024-03-06T09:24:37;8.97;;;8.17;;
10299;SDS011;5195;48.562;9.192;2024-03-06T09:27:12;7.70;;;7.00;;
10299;SDS011;5195;48.562;9.192;2024-03-06T09:29:48;8.25;;;7.60;;
10299;SDS011;5195;48.562;9.192;2024-03-06T09:32:23;7.47;;;6.63;;
10299;SDS011;5195;48.562;9.192;2024-03-06T09:34:59;8.77;;;8.07;;
10299;SDS011;5195;48.562;9.192;2024-03-06T09:37:35;7.70;;;7.10;;
10299;SDS011;5195;48.562;9.192;2024-03-06T09:40:10;7.73;;;7.13;;
10299;SDS011;5195;48.562;9.192;2024-03-06T09:42:49;6.67;;;6.03;;
10299;SDS011;5195;48.562;9.192;2024-03-06T09:45:24;6.73;;;6.17;;
10299;SDS011;5195;48.562;9.192;2024-03-06T09:48:02;5.73;;;5.33;;
10299;SDS011;5195;48.562;9.192;2024-03-06T09:50:37;6.30;;;5.70;;
10299;SDS011;5195;48.562;9.192;2024-03-06T09:53:14;8.00;;;7.20;;
10299;SDS011;5195;48.562;9.192;2024-03-06T09:55:50;8.30;;;7.60;;
10299;SDS011;5195;48.562;9.192;2024-03-06T09:58:27;8.47;;;7.70;;
10299;SDS011;5195;48.562;9.192;2024-03-06T10:01:04;6.53;;;5.97;;
10299;SDS011;5195;48.562;9.192;2024-03-06T10:03:41;9.80;;;9.00;;
10299;SDS011;5195;48.562;9.192;2024-03-06T10:06:18;7.27;;;6.67;;
10299;SDS011;5195;48.562;9.192;2024-03-06T10:09:02;7.93;;;7.23;;
10299;SDS011;5195;48.562;9.192;2024-03-06T10:11:32;6.97;;;6.40;;
10299;SDS011;5195;48.562;9.192;2024-03-06T10:14:08;5.90;;;5.33;;
10299;SDS011;5195;48.562;9.192;2024-03-06T10:16:53;8.03;;;7.43;;
10299;SDS011;5195;48.562;9.192;2024-03-06T10:19:32;8.13;;;7.53;;
10299;SDS011;5195;48.562;9.192;2024-03-06T10:22:09;8.10;;;7.50;;
10299;SDS011;5195;48.562;9.192;2024-03-06T10:24:45;9.02;;;8.32;;
10299;SDS011;5195;48.562;9.192;2024-03-06T10:27:20;7.57;;;6.97;;
10299;SDS011;5195;48.562;9.192;2024-03-06T10:30:03;8.43;;;7.80;;
10299;SDS011;5195;48.562;9.192;2024-03-06T10:32:38;8.55;;;7.95;;
10299;SDS011;5195;48.562;9.192;2024-03-06T10:35:18;7.53;;;6.70;;
10299;SDS011;5195;48.562;9.192;2024-03-06T10:37:53;7.47;;;6.80;;
10299;SDS011;5195;48.562;9.192;2024-03-06T10:40:30;6.70;;;6.20;;
10299;SDS011;5195;48.562;9.192;2024-03-06T10:43:05;7.07;;;6.57;;
10299;SDS011;5195;48.562;9.192;2024-03-06T10:48:22;8.47;;;7.67;;
10299;SDS011;5195;48.562;9.192;2024-03-06T10:50:59;9.40;;;8.80;;
10299;SDS011;5195;48.562;9.192;2024-03-06T10:53:35;8.07;;;7.47;;
10299;SDS011;5195;48.562;9.192;2024-03-06T10:56:12;7.03;;;6.33;;
10299;SDS011;5195;48.562;9.192;2024-03-06T10:58:50;9.63;;;8.80;;
10299;SDS011;5195;48.562;9.192;2024-03-06T11:01:24;7.67;;;7.07;;
10299;SDS011;5195;48.562;9.192;2024-03-06T11:04:02;9.80;;;9.00;;
10299;SDS011;5195;48.562;9.192;2024-03-06T11:06:40;7.80;;;7.13;;
10299;SDS011;5195;48.562;9.192;2024-03-06T11:09:16;9.43;;;7.30;;
10299;SDS011;5195;48.562;9.192;2024-03-06T11:11:52;9.20;;;8.47;;
10299;SDS011;5195;48.562;9.192;2024-03-06T11:14:27;9.98;;;9.07;;
10299;SDS011;5195;48.562;9.192;2024-03-06T11:17:10;10.35;;;9.60;;
10299;SDS011;5195;48.562;9.192;2024-03-06T11:28:32;8.13;;;7.50;;
10299;SDS011;5195;48.562;9.192;2024-03-06T11:31:10;9.73;;;8.93;;
10299;SDS011;5195;48.562;9.192;2024-03-06T11:33:52;11.18;;;10.30;;
10299;SDS011;5195;48.562;9.192;2024-03-06T11:36:25;11.05;;;10.05;;
10299;SDS011;5195;48.562;9.192;2024-03-06T11:39:07;10.02;;;9.18;;
10299;SDS011;5195;48.562;9.192;2024-03-06T11:41:49;10.77;;;9.93;;
10299;SDS011;5195;48.562;9.192;2024-03-06T11:44:24;11.07;;;10.27;;
10299;SDS011;5195;48.562;9.192;2024-03-06T11:47:04;8.97;;;8.27;;
10299;SDS011;5195;48.562;9.192;2024-03-06T11:49:40;10.50;;;9.70;;
10299;SDS011;5195;48.562;9.192;2024-03-06T11:52:16;9.33;;;8.53;;
10299;SDS011;5195;48.562;9.192;2024-03-06T11:54:51;8.20;;;7.60;;
10299;SDS011;5195;48.562;9.192;2024-03-06T11:57:27;8.80;;;8.00;;
10299;SDS011;5195;48.562;9.192;2024-03-06T12:00:03;9.73;;;8.83;;
10299;SDS011;5195;48.562;9.192;2024-03-06T12:02:38;11.47;;;10.57;;
10299;SDS011;5195;48.562;9.192;2024-03-06T12:05:14;10.50;;;9.60;;
10299;SDS011;5195;48.562;9.192;2024-03-06T12:07:50;11.82;;;10.93;;
10299;SDS011;5195;48.562;9.192;2024-03-06T12:10:27;10.83;;;9.93;;
10299;SDS011;5195;48.562;9.192;2024-03-06T12:13:04;13.55;;;12.35;;
10299;SDS011;5195;48.562;9.192;2024-03-06T12:15:42;13.45;;;12.35;;
10299;SDS011;5195;48.562;9.192;2024-03-06T12:18:19;13.27;;;12.23;;
10299;SDS011;5195;48.562;9.192;2024-03-06T12:20:56;13.25;;;12.25;;
10299;SDS011;5195;48.562;9.192;2024-03-06T12:23:33;13.25;;;12.15;;
10299;SDS011;5195;48.562;9.192;2024-03-06T12:26:09;13.15;;;12.15;;
10299;SDS011;5195;48.562;9.192;2024-03-06T12:28:47;13.47;;;12.47;;
10299;SDS011;5195;48.562;9.192;2024-03-06T12:31:23;15.20;;;14.00;;
10299;SDS011;5195;48.562;9.192;2024-03-06T12:33:59;14.18;;;13.07;;
10299;SDS011;5195;48.562;9.192;2024-03-06T12:36:34;14.53;;;13.43;;
10299;SDS011;5195;48.562;9.192;2024-03-06T12:39:10;12.00;;;11.00;;
10299;SDS011;5195;48.562;9.192;2024-03-06T12:41:49;14.77;;;13.50;;
10299;SDS011;5195;48.562;9.192;2024-03-06T12:44:25;14.52;;;13.32;;
10299;SDS011;5195;48.562;9.192;2024-03-06T12:47:01;12.10;;;11.10;;
10299;SDS011;5195;48.562;9.192;2024-03-06T12:49:36;14.60;;;13.50;;
10299;SDS011;5195;48.562;9.192;2024-03-06T12:52:14;12.10;;;11.10;;
10299;SDS011;5195;48.562;9.192;2024-03-06T12:54:49;14.82;;;13.62;;
10299;SDS011;5195;48.562;9.192;2024-03-06T12:57:26;14.37;;;13.27;;
10299;SDS011;5195;48.562;9.192;2024-03-06T13:00:02;11.77;;;10.77;;
10299;SDS011;5195;48.562;9.192;2024-03-06T13:02:37;11.23;;;10.33;;
10299;SDS011;5195;48.562;9.192;2024-03-06T13:05:13;11.23;;;10.23;;
10299;SDS011;5195;48.562;9.192;2024-03-06T13:07:48;12.07;;;10.97;;
10299;SDS011;5195;48.562;9.192;2024-03-06T13:10:24;11.97;;;10.90;;
10299;SDS011;5195;48.562;9.192;2024-03-06T13:12:59;12.37;;;11.27;;
10299;SDS011;5195;48.562;9.192;2024-03-06T13:15:35;15.80;;;14.52;;
10299;SDS011;5195;48.562;9.192;2024-03-06T13:18:11;13.37;;;12.23;;
10299;SDS011;5195;48.562;9.192;2024-03-06T13:20:46;12.97;;;11.73;;
10299;SDS011;5195;48.562;9.192;2024-03-06T13:23:22;12.77;;;11.50;;
10299;SDS011;5195;48.562;9.192;2024-03-06T13:25:59;17.07;;;15.63;;
10299;SDS011;5195;48.562;9.192;2024-03-06T13:28:34;14.20;;;12.73;;
10299;SDS011;5195;48.562;9.192;2024-03-06T13:31:10;16.87;;;15.57;;
10299;SDS011;5195;48.562;9.192;2024-03-06T13:33:45;17.62;;;16.20;;
10299;SDS011;5195;48.562;9.192;2024-03-06T13:36:21;13.23;;;12.03;;
10299;SDS011;5195;48.562;9.192;2024-03-06T13:38:57;18.20;;;16.70;;
10299;SDS011;5195;48.562;9.192;2024-03-06T13:41:32;14.80;;;13.47;;
10299;SDS011;5195;48.562;9.192;2024-03-06T13:44:08;14.37;;;13.10;;
10299;SDS011;5195;48.562;9.192;2024-03-06T13:46:44;14.23;;;12.83;;
10299;SDS011;5195;48.562;9.192;2024-03-06T13:49:40;19.98;;;18.17;;
10299;SDS011;5195;48.562;9.192;2024-03-06T13:52:15;15.77;;;13.53;;
10299;SDS011;5195;48.562;9.192;2024-03-06T13:54:51;19.27;;;17.65;;
10299;SDS011;5195;48.562;9.192;2024-03-06T13:57:26;16.10;;;14.50;;
10299;SDS011;5195;48.562;9.192;2024-03-06T14:00:03;14.53;;;13.17;;
10299;SDS011;5195;48.562;9.192;2024-03-06T14:02:41;19.65;;;17.95;;
10299;SDS011;5195;48.562;9.192;2024-03-06T14:05:17;20.13;;;18.33;;
10299;SDS011;5195;48.562;9.192;2024-03-06T14:07:53;20.07;;;18.40;;
10299;SDS011;5195;48.562;9.192;2024-03-06T14:10:29;16.33;;;14.93;;
10299;SDS011;5195;48.562;9.192;2024-03-06T14:13:05;14.60;;;13.30;;
10299;SDS011;5195;48.562;9.192;2024-03-06T14:15:40;20.20;;;18.37;;
10299;SDS011;5195;48.562;9.192;2024-03-06T14:18:17;21.40;;;19.50;;
10299;SDS011;5195;48.562;9.192;2024-03-06T14:20:52;20.73;;;18.92;;
10299;SDS011;5195;48.562;9.192;2024-03-06T14:23:29;16.33;;;14.73;;
10299;SDS011;5195;48.562;9.192;2024-03-06T14:26:04;15.80;;;14.30;;
10299;SDS011;5195;48.562;9.192;2024-03-06T14:28:40;15.90;;;14.30;;
10299;SDS011;5195;48.562;9.192;2024-03-06T14:31:16;20.73;;;18.92;;
10299;SDS011;5195;48.562;9.192;2024-03-06T14:33:52;21.07;;;19.27;;
10299;SDS011;5195;48.562;9.192;2024-03-06T14:36:27;18.27;;;16.23;;
10299;SDS011;5195;48.562;9.192;2024-03-06T14:39:03;17.10;;;15.30;;
10299;SDS011;5195;48.562;9.192;2024-03-06T14:41:38;15.47;;;13.87;;
10299;SDS011;5195;48.562;9.192;2024-03-06T14:44:14;16.27;;;13.90;;
10299;SDS011;5195;48.562;9.192;2024-03-06T14:46:50;21.05;;;19.12;;
10299;SDS011;5195;48.562;9.192;2024-03-06T14:49:26;14.50;;;13.20;;
10299;SDS011;5195;48.562;9.192;2024-03-06T14:52:02;17.30;;;15.53;;
10299;SDS011;5195;48.562;9.192;2024-03-06T14:54:38;19.58;;;17.83;;
10299;SDS011;5195;48.562;9.192;2024-03-06T14:57:17;22.37;;;20.33;;
10299;SDS011;5195;48.562;9.192;2024-03-06T14:59:53;16.33;;;14.77;;
10299;SDS011;5195;48.562;9.192;2024-03-06T15:02:29;19.67;;;17.90;;
10299;SDS011;5195;48.562;9.192;2024-03-06T15:05:04;15.67;;;14.17;;
10299;SDS011;5195;48.562;9.192;2024-03-06T15:07:40;14.90;;;13.53;;
10299;SDS011;5195;48.562;9.192;2024-03-06T15:10:18;20.63;;;18.70;;
10299;SDS011;5195;48.562;9.192;2024-03-06T15:12:53;16.43;;;14.73;;
10299;SDS011;5195;48.562;9.192;2024-03-06T15:15:30;15.73;;;14.03;;
10299;SDS011;5195;48.562;9.192;2024-03-06T15:18:07;19.98;;;18.15;;
10299;SDS011;5195;48.562;9.192;2024-03-06T15:20:44;16.43;;;14.87;;
10299;SDS011;5195;48.562;9.192;2024-03-06T15:23:20;21.07;;;19.20;;
10299;SDS011;5195;48.562;9.192;2024-03-06T15:25:56;16.20;;;14.07;;
10299;SDS011;5195;48.562;9.192;2024-03-06T15:28:31;20.95;;;19.12;;
10299;SDS011;5195;48.562;9.192;2024-03-06T15:31:08;23.48;;;21.40;;
10299;SDS011;5195;48.562;9.192;2024-03-06T15:33:43;21.50;;;19.50;;
10299;SDS011;5195;48.562;9.192;2024-03-06T15:36:19;16.37;;;14.87;;
10299;SDS011;5195;48.562;9.192;2024-03-06T15:38:54;19.40;;;17.67;;
10299;SDS011;5195;48.562;9.192;2024-03-06T15:41:30;16.50;;;13.63;;
10299;SDS011;5195;48.562;9.192;2024-03-06T15:44:06;17.92;;;16.42;;
10299;SDS011;5195;48.562;9.192;2024-03-06T15:46:42;18.30;;;16.80;;
10299;SDS011;5195;48.562;9.192;2024-03-06T15:49:19;14.03;;;12.83;;
10299;SDS011;5195;48.562;9.192;2024-03-06T15:51:53;13.43;;;12.17;;
10299;SDS011;5195;48.562;9.192;2024-03-06T15:54:30;17.20;;;15.70;;
10299;SDS011;5195;48.562;9.192;2024-03-06T15:57:07;14.43;;;13.07;;
10299;SDS011;5195;48.562;9.192;2024-03-06T15:59:42;13.67;;;12.37;;